METAR Data
IDs: Format: Raw Decoded Include TAF

Data at: 1325 UTC 20 Jul 2019

METAR for:KMCW (Mason City Muni, IA, US)
Text:KMCW 201253Z AUTO 21011KT 10SM CLR 27/23 A2977 RMK AO2 SLP063 T02670233
Temperature: 26.7°C ( 80°F)
Dewpoint: 23.3°C ( 74°F) [RH = 82%]
Pressure (altimeter):29.77 inches Hg (1008.2 mb) [Sea level pressure: 1006.3 mb]
Winds:from the SSW (210 degrees) at 13 MPH (11 knots; 5.7 m/s)
Visibility:10 or more sm (16+ km)
Ceiling:at least 12,000 feet AGL
Clouds:sky clear below 12,000 feet AGL
QC Flag:automated observation with no human augmentation